Airfield :
LOGIN :

Register | Disclaimer

   EN    FR    IT 

 










Legend :    VFR   Marginal VFR   IFR   Intensive IFR   Very Intensive IFR
Visi :
Ceiling :
>= 8 km
>= 3000ft
5 to 8 km
1000 to 3000 ft
1500m to 5 km
500 to 1000 ft
800 to 1500m
200 to 500 ft
< 800m
< 200 ft
Symbols :   Thunderstorms  Fog  Heavy snow  Heavy precipitations  Wind > 20 kt
SIGMETs :     Misc.  Thunderstorms  Icing  Turbulence  Mountain Waves  Volcanic Ashes







- Airport Elevation : 22 ft
- IATA code : LDY
- Download approach charts


EGAE - Londonderry Eglington

CURRENT METAR :
  • 161350Z 29010KT 260V320 9999 FEW027 BKN038 16/09 Q1025

EXPIRED METARs :
  • 161320Z 29010KT 9999 FEW027 BKN038 15/10 Q1025
  • 161250Z 31011KT 9999 FEW027 BKN038 15/11 Q1025
  • 161220Z 31009KT 9999 FEW020 BKN027 14/11 Q1025
  • 161150Z 28007KT 9999 FEW020 BKN035 15/10 Q1025
  • 161120Z 26007KT 9999 FEW021 BKN038 15/10 Q1025
  • 161050Z 28007KT 9999 FEW018 SCT040 14/10 Q1025

TAF TAF EGAE
Valid from the 16 at 12:00 until the 16 at 21:00 UTC


161059Z 1612/1621 26008KT 9999 SCT030
No reported NOTAMs for that airfield.



MET'MAP, your aeronautical weather chart ! - Copyright ORBIFLY December 2007 - Disclaimer

ORBIFLY MET'MAP TEAM :

Programming & Development : Alexandra Zaïnal
Concept & Development : Baudouin d'Aumeries
Co-Development & Prog : Marc-Olivier Méhu
Technical & hardware support : Manuel Goepfert

Contact : metmap@orbifly.com




SOURCES & CREDITS :

   NOAA